Overview Statistics Trail Chart Weather Telemetry Raw packets
 

This is the latest recevied weather packets stored in our database for station/object WX5II-15. If no packets are shown the sender has not sent any weather packets the latest 10 day(s).

<< 40 41 42 43 44 45 46 >>
Time Temp. Humidity Pressure Rain* Wind** Luminosity Snow
1787958374 36.67° C 41% 1005 hPa 0 mm - - -
1787957773 37.22° C 40% 1004.7 hPa 0 mm - - -
1787957173 38.89° C 37% 1004.4 hPa 0 mm - - -
1787956572 40° C 35% 1004.4 hPa 0 mm - - -
1787955971 41.11° C 33% 1004.4 hPa 0 mm - - -
1787955371 41.67° C 33% 1004.7 hPa 0 mm - - -
1787954770 40° C 34% 1004.7 hPa 0 mm - - -
1787954170 41.67° C 32% 1004.7 hPa 0 mm - - -
1787953569 42.78° C 32% 1005 hPa 0 mm - - -
1787952969 42.78° C 31% 1005 hPa 0 mm - - -
1787952368 43.33° C 31% 1005 hPa 0 mm - - -
1787951767 42.78° C 33% 1005 hPa 0 mm - - -
1787951167 41.67° C 34% 1005.4 hPa 0 mm - - -
1787950566 40.56° C 34% 1005.7 hPa 0 mm - - -
1787949966 40.56° C 34% 1005.7 hPa 0 mm - - -
1787949375 40.56° C 33% 1006 hPa 0 mm - - -
1787948765 41.11° C 32% 1006.4 hPa 0 mm - - -
1787948164 41.11° C 34% 1006.7 hPa 0 mm - - -
1787947563 40° C 35% 1006.7 hPa 0 mm - - -
1787946963 39.44° C 35% 1006.7 hPa 0 mm - - -
1787946362 40° C 34% 1007.1 hPa 0 mm - - -
1787945763 40° C 36% 1007.1 hPa 0 mm - - -
1787945162 40° C 35% 1007.4 hPa 0 mm - - -
1787944561 40° C 35% 1007.4 hPa 0 mm - - -
1787943960 40° C 35% 1007.4 hPa 0 mm - - -

* Rain latest hour (hover to see other rain measurements)
** Current wind speed in m/s (hover to see current wind gust speed)